Mooresburg, Tennessee
Current Conditions -  °F | °C
As of 7:15 AM on Monday 24 Nov 2014 (Local Time) from KMOR Reporting Station
Clear Clear  
Wind Chill: 61°   Ceiling: Unl
Heat Index: 61°   Visibility: 10mi
Dew Point: 48°   Wind: 16mph
Humidity: 63%   Direction: 230°SW
Pressure: 29.64"   Gusts: NA
Location:  36.35°N, 83.23°W
Report Text: KMOR 241215Z AUTO 23014KT 10SM CLR 16/09 A2964 RMK
Loading
Personal Weather Stations






























Interactive Weather Map New forecast layout! Learn more

10-Day Weather Forecast

Advertisements
Track Severe Weather on mobile